Time;durP1;ratioP1;P1;durP2;ratioP2;P2;SDS_P1;SDS_P2;PMS_P1;PMS_P2;Temp;Humidity;BMP_temperature;BMP_pressure;BME280_temperature;BME280_humidity;BME280_pressure;Samples;Min_cycle;Max_cycle;Signal;HPM_P1;HPM_P2
2023/08/18 00:01:08;;;;;;;;;;;;;;;24.84;47.17;94675.78;4176945;28;19927;-80
2023/08/18 00:03:09;;;;;;;;;;;;;;;24.85;47.16;94688.94;4175793;28;19928;-78
2023/08/18 00:05:11;;;;;;;;;;;;;;;24.82;47.17;94675.22;4173344;28;19921;-79
2023/08/18 00:07:12;;;;;;;;;;;;;;;24.81;47.21;94684.34;4171100;28;19944;-79
2023/08/18 00:09:14;;;;;;;;;;;;;;;24.83;47.20;94679.53;4176574;28;20466;-82
2023/08/18 00:11:16;;;;;;;;;;;;;;;24.85;47.24;94682.78;4167914;28;19944;-78
2023/08/18 00:13:17;;;;;;;;;;;;;;;24.69;47.57;94674.56;4173235;28;19977;-79
2023/08/18 00:15:19;;;;;;;;;;;;;;;24.66;47.56;94679.59;4176251;28;19924;-77
2023/08/18 00:17:21;;;;;;;;;;;;;;;24.67;47.52;94683.88;4179484;28;20315;-80
2023/08/18 00:19:22;;;;;;;;;;;;;;;24.60;47.61;94676.00;4178582;28;19970;-79
2023/08/18 00:21:24;;;;;;;;;;;;;;;24.58;47.79;94678.13;4171660;28;20279;-81
2023/08/18 00:23:25;;;;;;;;;;;;;;;24.61;47.72;94677.66;4177378;28;19921;-78
2023/08/18 00:25:27;;;;;;;;;;;;;;;24.59;47.59;94670.94;4174282;28;19943;-78
2023/08/18 00:27:30;;;;;;;;;;;;;;;24.56;47.86;94666.84;4165268;28;19921;-78
2023/08/18 00:29:32;;;;;;;;;;;;;;;24.54;47.77;94671.63;4164154;28;19947;-78
2023/08/18 00:31:33;;;;;;;;;;;;;;;24.47;48.00;94663.75;4164931;28;20256;-79
2023/08/18 00:33:35;;;;;;;;;;;;;;;24.39;48.20;94668.72;4178937;28;19928;-78
2023/08/18 00:35:37;;;;;;;;;;;;;;;24.35;48.51;94660.41;4178181;28;19960;-78
2023/08/18 00:37:39;;;;;;;;;;;;;;;24.42;48.54;94662.91;4166107;28;19937;-79
2023/08/18 00:39:41;;;;;;;;;;;;;;;24.39;48.36;94660.69;4176439;28;20018;-82
2023/08/18 00:41:43;;;;;;;;;;;;;;;24.38;48.24;94659.09;4165977;28;20295;-80
2023/08/18 00:43:44;;;;;;;;;;;;;;;24.40;48.44;94644.38;4161776;28;20008;-78
2023/08/18 00:45:46;;;;;;;;;;;;;;;24.41;48.08;94662.06;4172846;28;19952;-81
2023/08/18 00:47:48;;;;;;;;;;;;;;;24.43;48.11;94659.94;4161585;28;19956;-81
2023/08/18 00:49:49;;;;;;;;;;;;;;;24.44;47.82;94655.44;4178968;28;19924;-80
2023/08/18 00:51:51;;;;;;;;;;;;;;;24.38;47.95;94656.41;4168437;28;20033;-79
2023/08/18 00:53:54;;;;;;;;;;;;;;;24.38;48.05;94661.75;4176315;28;19996;-80
2023/08/18 00:55:55;;;;;;;;;;;;;;;24.27;48.19;94658.13;4163872;28;20445;-79
2023/08/18 00:57:57;;;;;;;;;;;;;;;24.28;48.53;94655.19;4165685;28;19931;-77
2023/08/18 00:59:59;;;;;;;;;;;;;;;24.31;48.29;94652.03;4168050;28;19920;-77
2023/08/18 01:02:02;;;;;;;;;;;;;;;24.28;48.43;94657.06;4166782;28;19975;-77
2023/08/18 01:04:04;;;;;;;;;;;;;;;24.32;48.27;94655.50;4166732;28;20627;-78
2023/08/18 01:06:07;;;;;;;;;;;;;;;24.33;48.30;94662.50;4170889;28;19924;-79
2023/08/18 01:08:09;;;;;;;;;;;;;;;24.24;48.58;94654.09;4176899;28;20333;-80
2023/08/18 01:10:10;;;;;;;;;;;;;;;24.15;48.67;94660.06;4164649;28;20309;-80
2023/08/18 01:12:21;;;;;;;;;;;;;;;24.07;48.87;94662.13;4175055;28;20341;-80
2023/08/18 01:14:42;;;;;;;;;;;;;;;24.06;48.87;94668.50;4167790;28;19921;-79
2023/08/18 01:16:45;;;;;;;;;;;;;;;24.03;49.13;94663.66;4167376;28;19929;-79
2023/08/18 01:18:48;;;;;;;;;;;;;;;23.94;49.32;94665.13;4165276;28;19921;-78
2023/08/18 01:20:50;;;;;;;;;;;;;;;23.94;50.04;94666.97;4166113;28;19925;-79
2023/08/18 01:23:01;;;;;;;;;;;;;;;23.90;50.20;94661.31;4169918;28;19924;-79
2023/08/18 01:25:03;;;;;;;;;;;;;;;23.81;50.39;94668.94;4169932;28;19966;-80
2023/08/18 01:27:04;;;;;;;;;;;;;;;23.69;50.92;94673.50;4169351;28;19921;-79
2023/08/18 01:29:06;;;;;;;;;;;;;;;23.61;50.93;94666.66;4175512;28;19920;-78
2023/08/18 01:31:08;;;;;;;;;;;;;;;23.64;51.00;94671.56;4163717;28;19924;-79
2023/08/18 01:33:36;;;;;;;;;;;;;;;23.64;51.01;94665.38;4163391;28;19960;-80
2023/08/18 01:35:38;;;;;;;;;;;;;;;23.62;51.00;94670.97;4170590;28;19992;-79
2023/08/18 01:37:40;;;;;;;;;;;;;;;23.62;51.31;94678.19;4170833;28;20095;-81
2023/08/18 01:39:42;;;;;;;;;;;;;;;23.58;51.15;94679.72;4177186;28;20391;-80
2023/08/18 01:41:43;;;;;;;;;;;;;;;23.59;51.18;94676.00;4171006;28;19925;-77
2023/08/18 01:43:45;;;;;;;;;;;;;;;23.53;51.65;94680.44;4170941;28;19931;-78
2023/08/18 01:45:49;;;;;;;;;;;;;;;23.52;51.72;94681.50;4171510;28;20004;-79
2023/08/18 01:47:51;;;;;;;;;;;;;;;23.54;51.85;94684.75;4173191;28;19920;-78
2023/08/18 01:49:53;;;;;;;;;;;;;;;23.50;51.87;94683.59;4166204;28;19945;-80
2023/08/18 01:51:54;;;;;;;;;;;;;;;23.44;52.00;94676.53;4171867;28;20002;-77
2023/08/18 01:53:56;;;;;;;;;;;;;;;23.46;51.86;94669.09;4178460;28;19921;-80
2023/08/18 01:56:01;;;;;;;;;;;;;;;23.40;52.21;94680.72;4165890;28;20016;-80
2023/08/18 01:58:03;;;;;;;;;;;;;;;23.39;51.96;94684.47;4162463;28;19921;-82
2023/08/18 02:00:06;;;;;;;;;;;;;;;23.43;51.82;94674.91;4157790;28;20257;-79
2023/08/18 02:02:19;;;;;;;;;;;;;;;23.44;51.61;94666.63;4166673;28;19932;-79
2023/08/18 02:04:21;;;;;;;;;;;;;;;23.49;51.46;94665.94;4176572;28;19920;-79
2023/08/18 02:06:23;;;;;;;;;;;;;;;23.50;51.61;94665.69;4172159;28;19925;-80
2023/08/18 02:08:24;;;;;;;;;;;;;;;23.58;51.43;94661.00;4164925;28;20038;-80
2023/08/18 02:10:26;;;;;;;;;;;;;;;23.57;51.50;94656.69;4176489;28;19956;-80
2023/08/18 02:12:27;;;;;;;;;;;;;;;23.60;51.52;94657.03;4177664;28;19932;-79
2023/08/18 02:14:29;;;;;;;;;;;;;;;23.60;51.44;94657.03;4178112;28;20007;-77
2023/08/18 02:16:30;;;;;;;;;;;;;;;23.62;51.28;94654.94;4167204;28;20328;-78
2023/08/18 02:18:32;;;;;;;;;;;;;;;23.62;51.40;94654.94;4174767;28;19970;-79
2023/08/18 02:20:36;;;;;;;;;;;;;;;23.60;51.21;94654.38;4171171;28;19921;-79
2023/08/18 02:22:38;;;;;;;;;;;;;;;23.51;51.53;94648.59;4171659;28;19974;-78
2023/08/18 02:24:39;;;;;;;;;;;;;;;23.44;51.76;94647.94;4172635;28;19982;-80
2023/08/18 02:26:41;;;;;;;;;;;;;;;23.44;51.68;94639.09;4170729;28;19921;-80
2023/08/18 02:28:45;;;;;;;;;;;;;;;23.44;51.68;94644.44;4163653;28;19939;-78
2023/08/18 02:30:47;;;;;;;;;;;;;;;23.38;51.96;94640.06;4169395;28;19929;-78
2023/08/18 02:32:48;;;;;;;;;;;;;;;23.24;52.22;94647.56;4178172;28;19939;-78
2023/08/18 02:34:50;;;;;;;;;;;;;;;23.18;52.44;94656.53;4183906;28;19947;-78
2023/08/18 02:36:52;;;;;;;;;;;;;;;23.21;52.52;94642.69;4182811;28;19934;-79
2023/08/18 02:38:53;;;;;;;;;;;;;;;23.18;52.20;94648.53;4173232;28;19928;-79
2023/08/18 02:40:55;;;;;;;;;;;;;;;23.12;52.48;94647.59;4166071;28;20361;-79
2023/08/18 02:42:57;;;;;;;;;;;;;;;23.14;52.56;94652.72;4179860;28;19924;-79
2023/08/18 02:44:59;;;;;;;;;;;;;;;23.11;52.67;94648.66;4175035;28;20478;-78
2023/08/18 02:47:00;;;;;;;;;;;;;;;23.15;52.71;94646.34;4172335;28;20234;-80
2023/08/18 02:49:02;;;;;;;;;;;;;;;23.12;52.87;94650.28;4178433;28;19947;-78
2023/08/18 02:51:04;;;;;;;;;;;;;;;23.13;52.87;94651.91;4169894;28;20051;-78
2023/08/18 02:53:06;;;;;;;;;;;;;;;23.14;52.81;94647.38;4177839;28;19921;-78
2023/08/18 02:55:08;;;;;;;;;;;;;;;23.11;52.66;94651.34;4176294;28;19925;-77
2023/08/18 02:57:09;;;;;;;;;;;;;;;23.08;52.74;94651.81;4170078;28;19983;-80
2023/08/18 02:59:11;;;;;;;;;;;;;;;23.14;52.56;94652.72;4171929;28;19957;-79
2023/08/18 03:01:13;;;;;;;;;;;;;;;23.20;52.30;94649.09;4173807;28;19948;-79
2023/08/18 03:03:14;;;;;;;;;;;;;;;23.26;52.28;94642.81;4177536;28;19921;-77
2023/08/18 03:05:16;;;;;;;;;;;;;;;23.29;52.35;94648.47;4178041;28;20375;-79
2023/08/18 03:07:18;;;;;;;;;;;;;;;23.37;51.92;94649.16;4174882;28;19988;-80
2023/08/18 03:09:19;;;;;;;;;;;;;;;23.43;51.97;94651.66;4177013;28;19920;-79
2023/08/18 03:11:23;;;;;;;;;;;;;;;23.46;51.82;94650.38;4166979;28;19949;-80
2023/08/18 03:13:25;;;;;;;;;;;;;;;23.54;51.61;94658.00;4181433;28;19966;-78
2023/08/18 03:15:26;;;;;;;;;;;;;;;23.59;51.44;94659.94;4182858;28;19959;-77
2023/08/18 03:17:28;;;;;;;;;;;;;;;23.63;51.18;94661.91;4196920;28;19932;-78
2023/08/18 03:19:30;;;;;;;;;;;;;;;23.68;51.00;94664.69;4197538;28;19920;-80
2023/08/18 03:21:32;;;;;;;;;;;;;;;23.71;50.82;94669.53;4197590;28;19940;-77
2023/08/18 03:23:34;;;;;;;;;;;;;;;23.71;50.79;94668.72;4181632;28;19931;-78
2023/08/18 03:25:36;;;;;;;;;;;;;;;23.73;50.76;94668.50;4181615;28;19917;-77
2023/08/18 03:27:37;;;;;;;;;;;;;;;23.75;50.93;94669.03;4182781;28;19941;-81
2023/08/18 03:29:39;;;;;;;;;;;;;;;23.77;50.92;94670.47;4190265;28;19986;-77
2023/08/18 03:31:41;;;;;;;;;;;;;;;23.80;50.88;94666.50;4192893;28;19962;-79
2023/08/18 03:33:44;;;;;;;;;;;;;;;23.83;50.71;94660.66;4205946;28;19908;-78
2023/08/18 03:35:48;;;;;;;;;;;;;;;23.82;50.76;94670.53;4178331;28;19917;-76
2023/08/18 03:37:49;;;;;;;;;;;;;;;23.82;50.83;94667.88;4183160;28;19931;-78
2023/08/18 03:39:54;;;;;;;;;;;;;;;23.85;50.83;94663.88;4197404;28;20083;-78
2023/08/18 03:41:56;;;;;;;;;;;;;;;23.86;50.89;94668.19;4182316;28;19971;-81
2023/08/18 03:43:58;;;;;;;;;;;;;;;23.89;50.95;94670.38;4183061;28;19980;-78
2023/08/18 03:46:02;;;;;;;;;;;;;;;23.87;51.03;94665.25;4183047;28;20467;-76
2023/08/18 03:48:04;;;;;;;;;;;;;;;23.90;50.78;94674.69;4180170;28;20040;-77
2023/08/18 03:50:06;;;;;;;;;;;;;;;23.91;50.65;94669.06;4179596;28;19955;-77
2023/08/18 03:52:07;;;;;;;;;;;;;;;23.93;50.66;94666.16;4171398;28;19925;-78
2023/08/18 03:54:09;;;;;;;;;;;;;;;23.94;50.77;94667.81;4174211;28;19932;-79
2023/08/18 03:56:11;;;;;;;;;;;;;;;23.95;50.36;94669.41;4179275;28;19920;-80
2023/08/18 03:58:12;;;;;;;;;;;;;;;23.95;50.33;94673.97;4180980;28;19927;-81
2023/08/18 04:00:14;;;;;;;;;;;;;;;23.96;50.81;94670.22;4179194;28;19991;-81
2023/08/18 04:02:16;;;;;;;;;;;;;;;23.99;50.50;94678.56;4173839;28;20388;-84
2023/08/18 04:04:17;;;;;;;;;;;;;;;24.02;50.64;94678.06;4169289;28;20276;-78
2023/08/18 04:06:19;;;;;;;;;;;;;;;24.02;50.82;94675.41;4174749;28;20257;-79
2023/08/18 04:08:22;;;;;;;;;;;;;;;24.03;51.01;94677.03;4180339;28;20232;-80
2023/08/18 04:10:24;;;;;;;;;;;;;;;24.06;50.83;94671.19;4177295;28;19956;-80
2023/08/18 04:12:25;;;;;;;;;;;;;;;24.00;51.01;94680.19;4164170;28;19975;-78
2023/08/18 04:14:28;;;;;;;;;;;;;;;23.96;50.80;94679.03;4164638;28;20014;-80
2023/08/18 04:16:31;;;;;;;;;;;;;;;23.99;50.69;94678.56;4165655;28;20299;-81
2023/08/18 04:18:33;;;;;;;;;;;;;;;24.05;50.75;94682.97;4178309;28;19970;-79
2023/08/18 04:20:35;;;;;;;;;;;;;;;24.12;51.09;94677.44;4170219;28;20284;-79
2023/08/18 04:22:37;;;;;;;;;;;;;;;24.18;50.54;94683.66;4174969;28;19921;-80
2023/08/18 04:24:39;;;;;;;;;;;;;;;24.23;50.62;94683.75;4172509;28;19982;-79
2023/08/18 04:26:40;;;;;;;;;;;;;;;24.20;50.29;94687.75;4181233;28;19920;-79
2023/08/18 04:28:43;;;;;;;;;;;;;;;23.92;50.58;94691.31;4169353;28;20378;-78
2023/08/18 04:30:45;;;;;;;;;;;;;;;23.90;50.98;94693.41;4175690;28;19974;-80
2023/08/18 04:32:47;;;;;;;;;;;;;;;23.95;51.16;94684.66;4177228;28;20036;-80
2023/08/18 04:34:49;;;;;;;;;;;;;;;24.07;50.88;94686.19;4167960;28;20017;-80
2023/08/18 04:36:51;;;;;;;;;;;;;;;24.20;50.49;94682.38;4181052;28;19927;-78
2023/08/18 04:38:52;;;;;;;;;;;;;;;24.30;50.59;94689.75;4189649;28;19947;-79
2023/08/18 04:40:58;;;;;;;;;;;;;;;24.38;50.22;94680.50;4178769;28;20341;-79
2023/08/18 04:42:59;;;;;;;;;;;;;;;24.45;50.01;94687.28;4168064;28;19924;-82
2023/08/18 04:45:01;;;;;;;;;;;;;;;24.51;50.15;94685.53;4171608;28;19927;-80
2023/08/18 04:47:05;;;;;;;;;;;;;;;24.59;49.99;94687.81;4176024;28;19921;-80
2023/08/18 04:49:06;;;;;;;;;;;;;;;24.62;49.92;94695.31;4171166;28;19920;-80
2023/08/18 04:51:10;;;;;;;;;;;;;;;24.56;49.97;94692.81;4173900;28;19927;-82
2023/08/18 04:53:12;;;;;;;;;;;;;;;24.58;50.16;94691.53;4173683;28;19974;-79
2023/08/18 04:55:13;;;;;;;;;;;;;;;24.64;49.92;94690.53;4170725;28;19921;-79
2023/08/18 04:57:15;;;;;;;;;;;;;;;24.71;49.78;94695.72;4174680;28;19921;-80
2023/08/18 04:59:17;;;;;;;;;;;;;;;24.76;49.90;94695.81;4174484;28;20415;-80
2023/08/18 05:01:19;;;;;;;;;;;;;;;24.83;49.76;94696.41;4178326;28;20360;-81
2023/08/18 05:03:21;;;;;;;;;;;;;;;24.75;49.93;94696.03;4178358;28;19974;-80
2023/08/18 05:05:22;;;;;;;;;;;;;;;24.76;50.05;94693.13;4169465;28;19920;-81
2023/08/18 05:07:24;;;;;;;;;;;;;;;24.78;50.04;94692.84;4173728;28;20344;-80
2023/08/18 05:09:25;;;;;;;;;;;;;;;24.82;49.94;94696.66;4171110;28;19921;-81
2023/08/18 05:11:27;;;;;;;;;;;;;;;24.87;49.99;94697.53;4166359;28;20028;-82
2023/08/18 05:13:34;;;;;;;;;;;;;;;24.87;49.95;94702.09;4174068;28;19925;-80
2023/08/18 05:15:36;;;;;;;;;;;;;;;24.74;50.29;94708.63;4180607;28;19935;-80
2023/08/18 05:17:38;;;;;;;;;;;;;;;24.71;50.52;94701.06;4171508;28;20192;-78
2023/08/18 05:19:40;;;;;;;;;;;;;;;24.59;50.62;94703.88;4173216;28;19920;-79
2023/08/18 05:21:42;;;;;;;;;;;;;;;24.61;50.75;94706.28;4176935;28;19975;-81
2023/08/18 05:23:45;;;;;;;;;;;;;;;24.35;51.13;94702.41;4178903;28;20015;-80
2023/08/18 05:25:48;;;;;;;;;;;;;;;24.40;51.44;94703.28;4170560;28;20042;-82
2023/08/18 05:27:49;;;;;;;;;;;;;;;24.49;51.37;94701.84;4169298;28;19929;-80
2023/08/18 05:29:52;;;;;;;;;;;;;;;24.43;51.18;94705.47;4172934;28;19969;-81
2023/08/18 05:31:54;;;;;;;;;;;;;;;24.36;51.56;94710.19;4179302;28;19921;-81
2023/08/18 05:33:56;;;;;;;;;;;;;;;24.43;51.67;94708.16;4171298;28;19921;-81
2023/08/18 05:35:59;;;;;;;;;;;;;;;24.44;51.49;94708.97;4152299;28;19928;-79
2023/08/18 05:38:00;;;;;;;;;;;;;;;24.46;51.46;94710.34;4174156;28;19982;-81
2023/08/18 05:40:02;;;;;;;;;;;;;;;24.32;51.54;94703.69;4171577;28;19936;-78
2023/08/18 05:42:04;;;;;;;;;;;;;;;24.36;51.81;94712.88;4171394;28;19928;-79
2023/08/18 05:44:05;;;;;;;;;;;;;;;24.33;51.61;94708.00;4167408;28;20007;-81
2023/08/18 05:46:08;;;;;;;;;;;;;;;24.07;52.37;94704.94;4179541;28;20012;-82
2023/08/18 05:48:10;;;;;;;;;;;;;;;24.16;52.38;94712.56;4177174;28;19928;-81
2023/08/18 05:50:11;;;;;;;;;;;;;;;24.29;51.74;94709.56;4173362;28;19925;-82
2023/08/18 05:52:13;;;;;;;;;;;;;;;24.45;51.64;94710.59;4174883;28;20023;-81
2023/08/18 05:54:14;;;;;;;;;;;;;;;24.62;51.43;94710.59;4173652;28;19937;-81
2023/08/18 05:56:17;;;;;;;;;;;;;;;24.61;51.00;94714.31;4168686;28;19925;-82
2023/08/18 05:58:19;;;;;;;;;;;;;;;24.52;50.98;94711.25;4175647;28;19959;-79
2023/08/18 06:00:23;;;;;;;;;;;;;;;24.60;51.01;94708.16;4178738;28;19927;-81
2023/08/18 06:02:25;;;;;;;;;;;;;;;24.66;50.79;94706.38;4178898;28;19921;-81
2023/08/18 06:04:27;;;;;;;;;;;;;;;24.79;50.81;94705.22;4178474;28;20014;-84
2023/08/18 06:06:29;;;;;;;;;;;;;;;24.91;50.41;94709.38;4173856;28;19920;-81
2023/08/18 06:08:30;;;;;;;;;;;;;;;25.07;49.91;94712.25;4178371;28;20054;-83
2023/08/18 06:10:32;;;;;;;;;;;;;;;25.25;49.65;94705.78;4168320;28;20484;-80
2023/08/18 06:12:34;;;;;;;;;;;;;;;25.41;49.38;94706.78;4165677;28;20043;-78
2023/08/18 06:14:36;;;;;;;;;;;;;;;25.55;48.98;94705.31;4177475;28;19921;-79
2023/08/18 06:16:38;;;;;;;;;;;;;;;25.64;48.75;94706.50;4178006;28;19925;-80
2023/08/18 06:18:39;;;;;;;;;;;;;;;25.76;48.74;94703.66;4163768;28;19994;-80
2023/08/18 06:20:41;;;;;;;;;;;;;;;25.82;48.45;94707.22;4167680;28;20019;-81
2023/08/18 06:22:42;;;;;;;;;;;;;;;25.81;48.04;94702.88;4178355;28;19921;-79
2023/08/18 06:24:44;;;;;;;;;;;;;;;25.61;47.93;94701.63;4179020;28;20012;-81
2023/08/18 06:26:46;;;;;;;;;;;;;;;25.50;47.92;94711.44;4172010;28;20262;-80
2023/08/18 06:28:47;;;;;;;;;;;;;;;25.48;48.25;94707.41;4171686;28;20307;-81
2023/08/18 06:30:49;;;;;;;;;;;;;;;25.56;48.41;94708.84;4172345;28;19975;-82
2023/08/18 06:32:51;;;;;;;;;;;;;;;25.71;48.09;94708.97;4179270;28;19924;-80
2023/08/18 06:34:53;;;;;;;;;;;;;;;25.83;47.77;94712.28;4171377;28;19971;-79
2023/08/18 06:36:55;;;;;;;;;;;;;;;26.01;47.28;94715.72;4175117;28;20311;-80
2023/08/18 06:38:57;;;;;;;;;;;;;;;25.97;46.79;94709.25;4170013;28;19929;-79
2023/08/18 06:40:58;;;;;;;;;;;;;;;25.91;47.27;94708.38;4171481;28;19921;-81
2023/08/18 06:43:00;;;;;;;;;;;;;;;25.99;47.12;94717.84;4172226;28;19921;-80
2023/08/18 06:45:03;;;;;;;;;;;;;;;26.11;46.96;94713.94;4172012;28;20308;-80
2023/08/18 06:47:05;;;;;;;;;;;;;;;26.17;46.75;94722.84;4170095;28;19920;-79
2023/08/18 06:49:07;;;;;;;;;;;;;;;26.13;46.71;94714.47;4170656;28;20445;-79
2023/08/18 06:51:09;;;;;;;;;;;;;;;26.23;46.25;94713.75;4174659;28;19925;-80
2023/08/18 06:53:10;;;;;;;;;;;;;;;26.35;46.06;94710.91;4183455;28;19927;-80
2023/08/18 06:55:14;;;;;;;;;;;;;;;26.50;45.74;94711.00;4173686;28;19928;-79
2023/08/18 06:57:25;;;;;;;;;;;;;;;26.25;45.57;94700.88;4161879;28;19925;-81
2023/08/18 06:59:27;;;;;;;;;;;;;;;26.19;46.28;94712.66;4172922;28;19956;-79
2023/08/18 07:01:30;;;;;;;;;;;;;;;26.26;46.38;94713.22;4178056;28;20244;-80
2023/08/18 07:03:32;;;;;;;;;;;;;;;26.33;45.93;94713.03;4176646;28;19928;-81
2023/08/18 07:05:33;;;;;;;;;;;;;;;26.27;46.22;94711.38;4168295;28;20408;-80
2023/08/18 07:07:36;;;;;;;;;;;;;;;26.37;45.83;94719.47;4174770;28;19921;-80
2023/08/18 07:09:38;;;;;;;;;;;;;;;26.44;45.71;94709.34;4168312;28;20003;-82
2023/08/18 07:11:40;;;;;;;;;;;;;;;26.51;45.61;94698.38;4175607;28;19947;-82
2023/08/18 07:13:42;;;;;;;;;;;;;;;26.54;45.40;94704.06;4165352;28;20012;-83
2023/08/18 07:15:44;;;;;;;;;;;;;;;26.73;45.50;94701.75;4177725;28;20526;-80
2023/08/18 07:17:46;;;;;;;;;;;;;;;26.78;44.76;94698.31;4181384;28;19925;-81
2023/08/18 07:19:47;;;;;;;;;;;;;;;26.51;45.24;94693.00;4179664;28;20032;-81
2023/08/18 07:21:49;;;;;;;;;;;;;;;26.60;44.96;94696.03;4176024;28;20001;-80
2023/08/18 07:23:51;;;;;;;;;;;;;;;26.80;45.12;94708.78;4180777;28;20477;-81
2023/08/18 07:25:53;;;;;;;;;;;;;;;27.03;44.88;94699.50;4180381;28;20372;-83
2023/08/18 07:27:54;;;;;;;;;;;;;;;27.00;44.52;94700.84;4173556;28;19928;-80
2023/08/18 07:29:56;;;;;;;;;;;;;;;26.87;44.64;94695.94;4173369;28;19956;-79
2023/08/18 07:31:57;;;;;;;;;;;;;;;26.85;44.72;94693.50;4173377;28;19925;-81
2023/08/18 07:33:59;;;;;;;;;;;;;;;26.81;44.69;94703.16;4172288;28;22002;-83
2023/08/18 07:36:01;;;;;;;;;;;;;;;27.03;43.94;94700.31;4179582;28;20011;-81
2023/08/18 07:38:03;;;;;;;;;;;;;;;27.22;43.43;94707.94;4179144;28;19982;-80
2023/08/18 07:40:05;;;;;;;;;;;;;;;27.41;43.95;94702.91;4182245;28;19943;-80
2023/08/18 07:42:08;;;;;;;;;;;;;;;27.52;43.50;94712.63;4168739;28;19980;-81
2023/08/18 07:44:10;;;;;;;;;;;;;;;27.60;43.30;94703.19;4173158;28;19966;-81
2023/08/18 07:46:11;;;;;;;;;;;;;;;27.69;43.10;94710.50;4171894;28;19998;-81
2023/08/18 07:48:13;;;;;;;;;;;;;;;27.80;42.83;94707.84;4179882;28;19964;-81
2023/08/18 07:50:17;;;;;;;;;;;;;;;27.90;42.20;94706.00;4168092;28;19920;-83
2023/08/18 07:52:19;;;;;;;;;;;;;;;28.00;42.46;94705.19;4169693;28;20486;-81
2023/08/18 07:54:22;;;;;;;;;;;;;;;28.04;42.08;94705.47;4168676;28;19920;-84
2023/08/18 07:56:24;;;;;;;;;;;;;;;28.03;41.96;94711.91;4167122;28;19943;-81
2023/08/18 07:58:26;;;;;;;;;;;;;;;28.13;42.10;94706.53;4176510;28;19924;-82
2023/08/18 08:00:27;;;;;;;;;;;;;;;28.20;42.06;94707.09;4176794;28;19925;-81
2023/08/18 08:02:29;;;;;;;;;;;;;;;28.19;41.67;94695.50;4170440;28;19964;-80
2023/08/18 08:04:32;;;;;;;;;;;;;;;28.14;41.02;94705.47;4171584;28;19999;-82
2023/08/18 08:06:34;;;;;;;;;;;;;;;28.12;40.99;94708.44;4170622;28;19947;-82
2023/08/18 08:08:35;;;;;;;;;;;;;;;28.26;41.36;94705.19;4173656;28;19929;-83
2023/08/18 08:10:37;;;;;;;;;;;;;;;28.21;40.99;94700.63;4167196;28;19928;-81
2023/08/18 08:12:39;;;;;;;;;;;;;;;27.97;41.39;94706.53;4169234;28;19920;-76
2023/08/18 08:14:41;;;;;;;;;;;;;;;27.78;41.68;94705.41;4178024;28;19920;-78
2023/08/18 08:16:42;;;;;;;;;;;;;;;27.81;41.61;94694.09;4178661;28;20454;-80
2023/08/18 08:18:44;;;;;;;;;;;;;;;28.05;41.46;94694.44;4179094;28;19929;-79
2023/08/18 08:20:45;;;;;;;;;;;;;;;28.26;40.63;94684.44;4178624;28;19924;-78
2023/08/18 08:22:48;;;;;;;;;;;;;;;28.33;40.00;94689.56;4168991;28;19964;-78
2023/08/18 08:24:50;;;;;;;;;;;;;;;28.47;39.68;94684.44;4170496;28;19921;-80
2023/08/18 08:26:53;;;;;;;;;;;;;;;28.33;39.86;94678.78;4180232;28;19920;-79
2023/08/18 08:28:57;;;;;;;;;;;;;;;28.39;39.97;94683.09;4172676;28;19927;-81
2023/08/18 08:31:01;;;;;;;;;;;;;;;28.46;39.64;94683.63;4170420;28;20392;-78
2023/08/18 08:33:08;;;;;;;;;;;;;;;28.68;39.61;94685.25;4173570;28;19972;-79
2023/08/18 08:35:10;;;;;;;;;;;;;;;28.84;38.83;94686.00;4175837;28;19975;-80
2023/08/18 08:37:11;;;;;;;;;;;;;;;28.92;38.35;94683.53;4173321;28;19948;-78
2023/08/18 08:39:13;;;;;;;;;;;;;;;29.10;38.07;94668.66;4163726;28;19987;-80
2023/08/18 08:41:15;;;;;;;;;;;;;;;29.23;37.81;94686.16;4167533;28;20028;-82
2023/08/18 08:43:17;;;;;;;;;;;;;;;29.39;37.29;94682.31;4166414;28;20012;-78
2023/08/18 08:45:18;;;;;;;;;;;;;;;29.53;37.17;94679.78;4169909;28;20331;-78
2023/08/18 08:47:20;;;;;;;;;;;;;;;29.54;36.68;94675.22;4178101;28;19920;-80
2023/08/18 08:49:21;;;;;;;;;;;;;;;29.44;36.05;94677.97;4171761;28;19936;-77
2023/08/18 08:51:27;;;;;;;;;;;;;;;29.32;35.65;94678.28;4161436;28;19921;-79
2023/08/18 08:53:35;;;;;;;;;;;;;;;29.20;35.28;94681.31;4169106;28;19963;-79
2023/08/18 08:55:37;;;;;;;;;;;;;;;29.27;35.62;94673.72;4159964;28;19921;-77
2023/08/18 08:57:40;;;;;;;;;;;;;;;29.07;35.63;94676.50;4178516;28;20295;-79
2023/08/18 08:59:42;;;;;;;;;;;;;;;28.96;35.73;94687.31;4170588;28;19925;-77
2023/08/18 09:01:44;;;;;;;;;;;;;;;28.88;35.93;94673.59;4180746;28;20033;-79
2023/08/18 09:03:45;;;;;;;;;;;;;;;29.03;35.81;94670.03;4178190;28;20387;-78
2023/08/18 09:05:48;;;;;;;;;;;;;;;29.10;35.40;94676.75;4176862;28;20408;-79
2023/08/18 09:07:50;;;;;;;;;;;;;;;29.21;35.00;94672.13;4178963;28;19927;-79
2023/08/18 09:09:53;;;;;;;;;;;;;;;28.96;34.87;94679.22;4176529;28;19932;-80
2023/08/18 09:11:59;;;;;;;;;;;;;;;28.91;35.16;94668.47;4174277;28;19935;-83
2023/08/18 09:14:01;;;;;;;;;;;;;;;29.06;34.98;94658.69;4167555;28;20388;-79
2023/08/18 09:16:06;;;;;;;;;;;;;;;29.03;35.10;94670.03;4178694;28;20362;-80
2023/08/18 09:18:08;;;;;;;;;;;;;;;29.11;35.41;94667.59;4174383;28;20376;-81
2023/08/18 09:20:11;;;;;;;;;;;;;;;29.32;34.85;94665.63;4168150;28;19932;-80
2023/08/18 09:22:14;;;;;;;;;;;;;;;29.42;34.57;94664.75;4174193;28;19964;-83
2023/08/18 09:24:19;;;;;;;;;;;;;;;29.47;34.47;94659.34;4173039;28;19921;-79
2023/08/18 09:26:20;;;;;;;;;;;;;;;29.47;34.35;94669.31;4174809;28;19921;-79
2023/08/18 09:28:22;;;;;;;;;;;;;;;29.50;34.16;94666.06;4173284;28;20368;-79
2023/08/18 09:30:24;;;;;;;;;;;;;;;29.39;34.63;94666.13;4177119;28;20249;-78
2023/08/18 09:32:27;;;;;;;;;;;;;;;29.44;34.83;94670.66;4169125;28;19920;-80
2023/08/18 09:34:32;;;;;;;;;;;;;;;29.64;34.63;94672.44;4171980;28;19948;-81
2023/08/18 09:36:33;;;;;;;;;;;;;;;29.74;34.46;94669.72;4161293;28;19927;-78
2023/08/18 09:38:39;;;;;;;;;;;;;;;29.85;33.98;94664.25;4169736;28;19939;-78
2023/08/18 09:40:41;;;;;;;;;;;;;;;29.51;34.84;94665.78;4173067;28;20143;-81
2023/08/18 09:42:49;;;;;;;;;;;;;;;29.59;34.81;94673.28;4167983;28;19925;-78
2023/08/18 09:44:51;;;;;;;;;;;;;;;29.72;34.67;94665.69;4176177;28;19933;-78
2023/08/18 09:46:56;;;;;;;;;;;;;;;29.72;34.98;94671.09;4172277;28;19932;-79
2023/08/18 09:48:58;;;;;;;;;;;;;;;29.82;34.79;94662.13;4166219;28;20020;-80
2023/08/18 09:51:00;;;;;;;;;;;;;;;29.65;34.74;94665.16;4175506;28;20026;-81
2023/08/18 09:53:01;;;;;;;;;;;;;;;29.60;34.96;94655.22;4167709;28;20313;-79
2023/08/18 09:55:06;;;;;;;;;;;;;;;29.61;34.99;94659.50;4173000;28;19998;-80
2023/08/18 09:57:09;;;;;;;;;;;;;;;29.78;35.24;94656.47;4174741;28;20369;-79
2023/08/18 09:59:26;;;;;;;;;;;;;;;29.92;34.60;94649.34;4175613;28;19947;-77
2023/08/18 10:01:28;;;;;;;;;;;;;;;30.10;34.64;94661.34;4174560;28;20329;-78
2023/08/18 10:03:30;;;;;;;;;;;;;;;30.22;34.57;94660.97;4177829;28;19998;-78
2023/08/18 10:05:31;;;;;;;;;;;;;;;30.20;34.37;94645.06;4165898;28;20324;-79
2023/08/18 10:07:33;;;;;;;;;;;;;;;30.28;34.67;94661.75;4169730;28;20320;-79
2023/08/18 10:09:35;;;;;;;;;;;;;;;29.93;34.81;94656.34;4166210;28;19921;-80
2023/08/18 10:11:37;;;;;;;;;;;;;;;30.04;34.94;94650.88;4177758;28;20052;-75
2023/08/18 10:13:52;;;;;;;;;;;;;;;30.33;34.18;94657.13;4186405;28;19925;-77
2023/08/18 10:15:54;;;;;;;;;;;;;;;30.52;34.19;94645.59;4176686;28;19964;-75
2023/08/18 10:17:56;;;;;;;;;;;;;;;30.73;34.03;94646.97;4175666;28;20321;-78
2023/08/18 10:20:00;;;;;;;;;;;;;;;30.94;33.78;94653.00;4173951;28;19920;-77
2023/08/18 10:22:01;;;;;;;;;;;;;;;31.07;33.24;94651.50;4184974;28;20039;-78
2023/08/18 10:24:03;;;;;;;;;;;;;;;30.98;32.86;94654.03;4180287;28;20023;-76
2023/08/18 10:26:05;;;;;;;;;;;;;;;30.88;32.84;94654.16;4191002;28;19924;-78
2023/08/18 10:28:07;;;;;;;;;;;;;;;30.75;33.06;94668.34;4189889;28;19920;-77
2023/08/18 10:30:08;;;;;;;;;;;;;;;30.89;33.35;94653.06;4190176;28;20395;-79
2023/08/18 10:32:10;;;;;;;;;;;;;;;30.79;33.00;94650.44;4184452;28;19928;-78
2023/08/18 10:34:19;;;;;;;;;;;;;;;30.98;33.00;94648.63;4183612;28;19959;-76
2023/08/18 10:36:21;;;;;;;;;;;;;;;31.12;32.68;94658.75;4191557;28;19924;-76
2023/08/18 10:38:27;;;;;;;;;;;;;;;31.10;32.82;94659.03;4190306;28;19920;-79